Time;durP1;ratioP1;P1;durP2;ratioP2;P2;SDS_P1;SDS_P2;PMS_P1;PMS_P2;Temp;Humidity;BMP_temperature;BMP_pressure;BME280_temperature;BME280_humidity;BME280_pressure;Samples;Min_cycle;Max_cycle;Signal;HPM_P1;HPM_P2
2022/01/16 00:00:53;;;;;;;43.23;11.13;;;2.10;99.90;;;;;;5037962;28;20242;-89
2022/01/16 00:06:03;;;;;;;61.30;12.10;;;2.00;99.90;;;;;;5056063;28;20197;-87
2022/01/16 00:08:28;;;;;;;63.17;12.07;;;2.10;99.90;;;;;;5037983;28;20184;-85
2022/01/16 00:10:54;;;;;;;57.63;12.60;;;2.10;99.90;;;;;;5037970;28;20202;-87
2022/01/16 00:13:20;;;;;;;54.60;13.10;;;2.10;99.90;;;;;;5037958;28;20674;-87
2022/01/16 00:15:45;;;;;;;55.07;10.60;;;2.10;99.90;;;;;;5037767;28;20234;-88
2022/01/16 00:18:42;;;;;;;28.60;10.70;;;2.10;99.90;;;;;;5037871;28;20642;-86
2022/01/16 00:20:57;;;;;;;53.83;13.60;;;3.00;99.90;;;;;;5055121;28;20223;-84
2022/01/16 00:23:25;;;;;;;44.23;12.40;;;2.00;99.90;;;;;;5037659;28;20438;-86
2022/01/16 00:25:53;;;;;;;28.60;11.30;;;2.00;99.90;;;;;;5037537;28;20179;-86
2022/01/16 00:28:20;;;;;;;43.93;14.83;;;2.00;99.90;;;;;;5036984;28;20186;-87
2022/01/16 00:30:46;;;;;;;42.77;14.57;;;3.60;99.90;;;;;;5038105;28;20207;-88
2022/01/16 00:33:11;;;;;;;46.37;15.70;;;3.20;99.90;;;;;;5055188;28;20456;-86
2022/01/16 00:35:37;;;;;;;46.33;15.70;;;3.60;99.90;;;;;;5037280;28;20178;-87
2022/01/16 00:38:04;;;;;;;41.27;14.60;;;2.00;99.90;;;;;;5037587;28;20198;-87
2022/01/16 00:40:30;;;;;;;38.23;13.97;;;1.90;99.90;;;;;;5037219;28;20676;-87
2022/01/16 00:42:57;;;;;;;44.87;13.80;;;1.90;99.90;;;;;;5037561;28;20424;-86
2022/01/16 00:45:26;;;;;;;44.77;13.57;;;1.90;99.90;;;;;;5055157;28;20168;-86
2022/01/16 00:47:52;;;;;;;28.53;12.43;;;1.90;99.90;;;;;;5037368;28;20178;-85
2022/01/16 00:50:17;;;;;;;28.03;12.23;;;1.90;99.90;;;;;;5037225;28;20442;-88
2022/01/16 00:52:43;;;;;;;34.50;12.40;;;1.80;99.90;;;;;;5036958;28;20201;-86
2022/01/16 00:55:09;;;;;;;26.67;11.83;;;1.90;99.90;;;;;;5037295;28;20335;-86
2022/01/16 00:57:35;;;;;;;35.23;12.70;;;1.80;99.90;;;;;;5037400;28;20223;-85
2022/01/16 01:00:01;;;;;;;49.80;12.20;;;1.80;99.90;;;;;;5037548;28;20973;-87
2022/01/16 01:02:26;;;;;;;31.00;12.17;;;1.80;99.90;;;;;;5037428;28;20201;-88
2022/01/16 01:04:52;;;;;;;32.10;11.37;;;1.80;99.90;;;;;;5038086;28;20182;-85
2022/01/16 01:07:18;;;;;;;26.23;11.93;;;1.80;99.90;;;;;;5037264;28;20194;-86
2022/01/16 01:09:44;;;;;;;31.80;11.57;;;1.70;99.90;;;;;;5036270;28;20277;-87
2022/01/16 01:12:13;;;;;;;24.63;11.57;;;1.70;99.90;;;;;;5036122;28;20190;-86
2022/01/16 01:15:03;;;;;;;21.77;11.90;;;1.70;99.90;;;;;;5036114;28;20241;-86
2022/01/16 01:17:27;;;;;;;26.77;11.80;;;1.70;99.90;;;;;;5053706;28;20742;-87
2022/01/16 01:19:53;;;;;;;29.43;12.13;;;1.60;99.90;;;;;;5035767;28;20195;-88
2022/01/16 01:22:19;;;;;;;21.60;11.10;;;1.60;99.90;;;;;;5053614;28;20205;-87
2022/01/16 01:24:44;;;;;;;23.07;13.10;;;1.60;99.90;;;;;;5036040;28;20183;-87
2022/01/16 01:27:20;;;;;;;22.33;12.13;;;1.60;99.90;;;;;;5036578;28;20233;-86
2022/01/16 01:29:54;;;;;;;24.87;13.23;;;3.50;99.90;;;;;;5036102;28;20174;-87
2022/01/16 01:32:19;;;;;;;23.50;11.60;;;1.60;99.90;;;;;;5036693;28;20185;-86
2022/01/16 01:34:45;;;;;;;21.67;12.67;;;1.60;99.90;;;;;;5036161;28;20211;-86
2022/01/16 01:37:11;;;;;;;19.30;12.50;;;1.60;99.90;;;;;;5036102;28;20178;-86
2022/01/16 01:39:36;;;;;;;22.53;12.87;;;1.60;99.90;;;;;;5036261;28;20183;-86
2022/01/16 01:42:08;;;;;;;21.07;11.60;;;1.60;99.90;;;;;;5039724;28;20188;-86
2022/01/16 01:52:50;;;;;;;23.53;12.30;;;1.60;99.90;;;;;;5058593;28;20399;-85
2022/01/16 01:55:16;;;;;;;26.97;14.17;;;1.60;99.90;;;;;;5041921;28;20463;-89
2022/01/16 01:57:42;;;;;;;24.60;14.27;;;1.60;99.90;;;;;;5040861;28;20214;-88
2022/01/16 02:00:08;;;;;;;23.67;13.70;;;1.60;99.90;;;;;;5040547;28;20238;-86
2022/01/16 02:02:46;;;;;;;23.80;13.90;;;1.60;99.90;;;;;;5040428;28;20591;-88
2022/01/16 02:05:11;;;;;;;23.47;14.00;;;1.60;99.90;;;;;;5040454;28;20483;-86
2022/01/16 02:07:37;;;;;;;22.90;13.50;;;1.60;99.90;;;;;;5040216;28;20462;-88
2022/01/16 02:10:04;;;;;;;24.30;15.20;;;1.70;99.90;;;;;;5040131;28;20203;-88
2022/01/16 02:12:31;;;;;;;30.73;16.30;;;1.60;99.90;;;;;;5040507;28;20183;-86
2022/01/16 02:15:07;;;;;;;28.77;16.77;;;1.70;99.90;;;;;;5042201;28;20241;-89
2022/01/16 02:36:45;;;;;;;29.77;17.80;;;1.70;99.90;;;;;;5056708;28;20458;-43
2022/01/16 02:39:13;;;;;;;34.00;17.83;;;1.80;99.90;;;;;;5056714;28;20163;-42
2022/01/16 02:41:41;;;;;;;31.40;18.17;;;1.80;99.90;;;;;;5056322;28;20551;-44
2022/01/16 02:47:11;;;;;;;39.63;21.37;;;1.90;99.90;;;;;;5014636;28;20203;-44
2022/01/16 02:49:40;;;;;;;44.10;22.57;;;1.90;99.90;;;;;;5048663;28;20246;-44
2022/01/16 02:52:08;;;;;;;42.60;22.87;;;1.90;99.90;;;;;;5055787;28;20181;-43
2022/01/16 02:54:37;;;;;;;47.77;25.07;;;1.90;99.90;;;;;;5054880;28;20203;-42
2022/01/16 02:57:05;;;;;;;50.83;24.67;;;1.90;99.90;;;;;;5054774;28;20209;-42
2022/01/16 02:59:31;;;;;;;61.73;29.40;;;1.90;99.90;;;;;;5054850;28;20228;-44
2022/01/16 03:01:57;;;;;;;58.87;29.33;;;2.00;99.90;;;;;;5054755;28;20178;-43
2022/01/16 03:04:22;;;;;;;65.40;29.63;;;2.00;99.90;;;;;;5056236;28;20653;-44
2022/01/16 03:06:48;;;;;;;59.93;30.20;;;2.10;99.90;;;;;;5055928;28;20203;-43
2022/01/16 03:09:15;;;;;;;68.63;29.80;;;2.10;99.90;;;;;;5056001;28;20179;-44
2022/01/16 03:11:48;;;;;;;70.03;31.27;;;2.10;99.90;;;;;;5055894;28;20179;-45
2022/01/16 03:14:17;;;;;;;64.97;31.40;;;2.10;99.90;;;;;;5054660;28;20300;-44
2022/01/16 03:16:47;;;;;;;63.27;30.13;;;2.10;99.90;;;;;;5055824;28;20199;-44
2022/01/16 03:22:02;;;;;;;59.07;28.20;;;2.20;99.90;;;;;;5056314;28;20200;-44
2022/01/16 03:24:39;;;;;;;60.70;27.70;;;2.20;99.90;;;;;;5056047;28;20201;-44
2022/01/16 03:27:12;;;;;;;66.30;29.53;;;2.20;99.90;;;;;;5055913;28;20550;-44
2022/01/16 03:29:39;;;;;;;59.80;27.93;;;2.20;99.90;;;;;;5054348;28;20696;-43
2022/01/16 03:32:07;;;;;;;60.20;29.07;;;2.20;99.90;;;;;;5055525;28;20905;-44
2022/01/16 03:34:33;;;;;;;60.53;29.50;;;2.20;99.90;;;;;;5054130;28;20464;-44
2022/01/16 03:36:58;;;;;;;60.60;29.37;;;2.30;99.90;;;;;;5054354;28;20682;-45
2022/01/16 03:39:24;;;;;;;61.27;28.77;;;2.30;99.90;;;;;;5054543;28;20185;-44
2022/01/16 03:41:50;;;;;;;59.80;29.60;;;2.30;99.90;;;;;;5055224;28;20308;-46
2022/01/16 03:44:16;;;;;;;64.70;29.40;;;2.30;99.90;;;;;;5055748;28;20311;-45
2022/01/16 03:46:43;;;;;;;59.83;29.83;;;2.40;99.90;;;;;;5055050;28;20203;-44
2022/01/16 03:49:18;;;;;;;58.20;29.07;;;2.30;99.90;;;;;;5054761;28;20456;-43
2022/01/16 03:51:46;;;;;;;56.67;28.63;;;2.30;99.90;;;;;;5055141;28;20608;-45
2022/01/16 03:54:14;;;;;;;57.37;28.70;;;2.40;99.90;;;;;;5054044;28;20388;-45
2022/01/16 03:56:41;;;;;;;58.37;29.67;;;2.30;99.90;;;;;;5055353;28;20286;-45
2022/01/16 03:59:07;;;;;;;58.80;28.00;;;2.30;99.90;;;;;;5037285;28;20424;-44
2022/01/16 04:01:33;;;;;;;58.97;28.30;;;2.40;99.90;;;;;;5053754;28;20187;-45
2022/01/16 04:03:58;;;;;;;58.50;29.40;;;2.40;99.90;;;;;;5054204;28;20213;-45
2022/01/16 04:06:24;;;;;;;60.17;29.90;;;2.40;99.90;;;;;;5053616;28;20210;-44
2022/01/16 04:08:53;;;;;;;57.53;29.20;;;2.40;99.90;;;;;;5053593;28;20189;-45
2022/01/16 04:11:19;;;;;;;59.83;29.10;;;2.40;99.90;;;;;;5054062;28;20573;-45
2022/01/16 04:13:51;;;;;;;56.10;29.73;;;2.50;99.90;;;;;;5053535;28;20283;-44
2022/01/16 04:16:20;;;;;;;55.20;27.43;;;2.40;99.90;;;;;;5053381;28;20443;-44
2022/01/16 04:18:50;;;;;;;63.90;30.00;;;2.50;99.90;;;;;;5053489;28;20997;-45
2022/01/16 04:21:20;;;;;;;62.80;32.20;;;2.50;99.90;;;;;;5053370;28;20425;-45
2022/01/16 04:23:46;;;;;;;65.60;32.07;;;2.50;99.90;;;;;;5053135;28;20483;-45
2022/01/16 04:26:13;;;;;;;69.63;32.37;;;2.50;99.90;;;;;;5053214;28;20333;-45
2022/01/16 04:28:38;;;;;;;66.97;30.77;;;2.50;99.90;;;;;;5053266;28;20233;-44
2022/01/16 04:31:04;;;;;;;67.13;31.43;;;2.50;99.90;;;;;;5053239;28;20262;-44
2022/01/16 04:33:30;;;;;;;64.87;32.73;;;2.50;99.90;;;;;;5053530;28;20569;-45
2022/01/16 04:35:56;;;;;;;63.57;28.47;;;2.60;99.90;;;;;;5052974;28;20615;-44
2022/01/16 04:38:22;;;;;;;68.70;31.60;;;2.50;99.90;;;;;;5054565;28;20253;-44
2022/01/16 04:43:48;;;;;;;64.00;30.27;;;2.60;99.90;;;;;;5054824;28;20684;-44
2022/01/16 04:46:19;;;;;;;62.93;30.13;;;2.60;99.90;;;;;;5052698;28;20203;-46
2022/01/16 04:48:46;;;;;;;66.57;32.37;;;2.60;99.90;;;;;;5052821;28;20179;-44
2022/01/16 04:51:13;;;;;;;63.93;30.90;;;2.60;99.90;;;;;;5053042;28;20272;-45
2022/01/16 04:53:40;;;;;;;66.83;31.90;;;2.60;99.90;;;;;;5052471;28;20221;-45
2022/01/16 04:56:06;;;;;;;66.57;31.70;;;2.60;99.90;;;;;;5053657;28;20217;-44
2022/01/16 04:58:33;;;;;;;66.57;31.93;;;2.60;99.90;;;;;;5052657;28;20236;-44
2022/01/16 05:00:59;;;;;;;65.63;33.20;;;2.60;99.90;;;;;;5053919;28;20184;-45
2022/01/16 05:03:26;;;;;;;68.63;33.43;;;2.60;99.90;;;;;;5053856;28;20191;-46
2022/01/16 05:05:52;;;;;;;63.90;32.73;;;2.60;99.90;;;;;;5052388;28;20265;-44
2022/01/16 05:08:18;;;;;;;64.07;33.90;;;2.70;99.90;;;;;;5053670;28;20617;-44
2022/01/16 05:10:44;;;;;;;64.13;32.80;;;2.60;99.90;;;;;;5052299;28;20218;-46
2022/01/16 05:13:29;;;;;;;75.03;31.47;;;2.60;99.90;;;;;;5053802;28;20186;-45
2022/01/16 05:18:41;;;;;;;53.43;27.37;;;2.70;99.90;;;;;;5054001;28;20198;-44
2022/01/16 05:21:07;;;;;;;64.00;30.10;;;2.70;99.90;;;;;;5052107;28;20763;-44
2022/01/16 05:23:34;;;;;;;58.77;29.67;;;2.70;99.90;;;;;;5053443;28;20245;-45
2022/01/16 05:26:00;;;;;;;69.27;33.40;;;2.70;99.90;;;;;;5052411;28;20678;-43
2022/01/16 05:28:27;;;;;;;70.20;32.97;;;2.70;99.90;;;;;;5053444;28;20894;-46
2022/01/16 05:30:53;;;;;;;67.63;32.90;;;2.70;99.90;;;;;;5053311;28;20197;-44
2022/01/16 05:33:19;;;;;;;70.20;33.00;;;2.80;99.90;;;;;;5053660;28;20583;-45
2022/01/16 05:35:45;;;;;;;70.60;34.20;;;2.80;99.90;;;;;;5053355;28;20713;-45
2022/01/16 05:38:11;;;;;;;70.00;34.47;;;2.70;99.90;;;;;;5052096;28;20175;-44
2022/01/16 05:40:37;;;;;;;66.87;33.67;;;2.80;99.90;;;;;;5053711;28;20189;-46
2022/01/16 05:43:03;;;;;;;60.50;31.93;;;2.80;99.90;;;;;;5053213;28;20552;-45
2022/01/16 05:45:29;;;;;;;66.13;31.67;;;2.80;99.90;;;;;;5051883;28;20206;-45
2022/01/16 05:47:56;;;;;;;66.57;32.27;;;2.80;99.90;;;;;;5053218;28;20186;-43
2022/01/16 05:50:23;;;;;;;63.17;32.83;;;2.90;99.90;;;;;;5053104;28;20583;-43
2022/01/16 05:52:49;;;;;;;69.40;34.33;;;2.90;99.90;;;;;;5053258;28;20175;-45
2022/01/16 05:55:15;;;;;;;60.00;28.73;;;2.90;99.90;;;;;;5051744;28;20225;-48
2022/01/16 05:57:41;;;;;;;64.13;31.73;;;2.90;99.90;;;;;;5051838;28;20175;-47
2022/01/16 06:00:09;;;;;;;61.60;30.93;;;2.90;99.90;;;;;;5053158;28;20186;-49
2022/01/16 06:02:36;;;;;;;66.27;33.37;;;2.90;99.90;;;;;;5051706;28;20422;-48
2022/01/16 06:05:02;;;;;;;57.40;31.43;;;3.00;99.90;;;;;;5052919;28;20183;-48
2022/01/16 06:07:28;;;;;;;54.53;30.17;;;3.00;99.90;;;;;;5051812;28;20214;-48
2022/01/16 06:09:54;;;;;;;67.87;33.00;;;3.00;99.90;;;;;;5051763;28;20650;-49
2022/01/16 06:12:20;;;;;;;59.10;29.67;;;3.00;99.90;;;;;;5051611;28;20236;-48
2022/01/16 06:14:45;;;;;;;62.03;32.27;;;3.10;99.90;;;;;;5052933;28;20204;-48
2022/01/16 06:17:11;;;;;;;54.17;30.50;;;3.00;99.90;;;;;;5051549;28;20203;-47
2022/01/16 06:19:37;;;;;;;66.03;34.57;;;3.00;99.90;;;;;;5051588;28;20191;-48
2022/01/16 06:22:03;;;;;;;64.23;33.83;;;3.10;99.90;;;;;;5052965;28;20195;-51
2022/01/16 06:24:29;;;;;;;60.43;31.20;;;3.10;99.90;;;;;;5053092;28;20191;-47
2022/01/16 06:26:54;;;;;;;57.03;32.13;;;3.10;99.90;;;;;;5054674;28;20650;-48
2022/01/16 06:29:20;;;;;;;55.20;31.60;;;3.10;99.90;;;;;;5056834;28;20179;-50
2022/01/16 06:31:46;;;;;;;57.00;28.50;;;3.20;99.90;;;;;;5055329;28;20183;-48
2022/01/16 06:34:12;;;;;;;69.27;34.60;;;3.20;99.90;;;;;;5055205;28;20200;-46
2022/01/16 06:36:38;;;;;;;57.13;29.97;;;3.20;99.90;;;;;;5056432;28;20253;-47
2022/01/16 06:39:06;;;;;;;58.60;31.63;;;3.20;99.90;;;;;;5056405;28;20195;-48
2022/01/16 06:41:33;;;;;;;61.53;31.67;;;3.20;99.90;;;;;;5055390;28;20191;-49
2022/01/16 06:43:59;;;;;;;57.47;31.20;;;3.20;99.90;;;;;;5057147;28;20565;-49
2022/01/16 06:46:25;;;;;;;58.37;31.47;;;3.20;99.90;;;;;;5055149;28;20210;-49
2022/01/16 06:48:51;;;;;;;55.30;27.77;;;3.20;99.90;;;;;;5055242;28;20182;-47
2022/01/16 06:51:19;;;;;;;63.70;32.30;;;3.20;99.90;;;;;;5054947;28;20546;-48
2022/01/16 06:53:46;;;;;;;62.13;33.03;;;3.20;99.90;;;;;;5054952;28;20211;-47
2022/01/16 06:56:12;;;;;;;57.93;29.47;;;3.20;99.90;;;;;;5056722;28;20204;-50
2022/01/16 06:58:38;;;;;;;59.43;30.10;;;3.30;99.90;;;;;;5054895;28;20187;-48
2022/01/16 07:01:03;;;;;;;55.23;30.30;;;3.20;99.90;;;;;;5038202;28;20208;-47
2022/01/16 07:03:29;;;;;;;46.33;24.73;;;3.20;99.90;;;;;;5054845;28;20190;-48
2022/01/16 07:05:55;;;;;;;55.47;28.00;;;3.20;99.90;;;;;;5056050;28;20203;-48
2022/01/16 07:08:23;;;;;;;61.43;32.83;;;3.30;99.90;;;;;;5054551;28;20188;-49
2022/01/16 07:10:50;;;;;;;56.97;30.50;;;3.20;99.90;;;;;;5054618;28;20191;-48
2022/01/16 07:13:17;;;;;;;56.13;29.47;;;3.30;99.90;;;;;;5054422;28;20203;-48
2022/01/16 07:15:42;;;;;;;44.17;24.40;;;3.30;99.90;;;;;;5055910;28;20203;-48
2022/01/16 07:18:08;;;;;;;57.07;26.47;;;3.30;99.90;;;;;;5054442;28;20274;-49
2022/01/16 07:20:33;;;;;;;60.73;31.87;;;3.40;99.90;;;;;;5054457;28;20180;-51
2022/01/16 07:22:59;;;;;;;57.03;28.60;;;3.40;99.90;;;;;;5054630;28;20190;-49
2022/01/16 07:25:25;;;;;;;53.93;28.80;;;3.30;99.90;;;;;;5054665;28;20200;-49
2022/01/16 07:27:50;;;;;;;63.40;32.60;;;3.30;99.90;;;;;;5056317;28;20661;-50
2022/01/16 07:30:16;;;;;;;61.60;30.00;;;3.30;99.90;;;;;;5056047;28;20182;-46
2022/01/16 07:32:42;;;;;;;48.67;25.10;;;3.40;99.90;;;;;;5055856;28;20177;-46
2022/01/16 07:35:08;;;;;;;58.80;30.47;;;3.40;99.90;;;;;;5055664;28;20203;-44
2022/01/16 07:37:34;;;;;;;61.30;31.97;;;3.30;99.90;;;;;;5053585;28;20175;-44
2022/01/16 07:39:59;;;;;;;41.70;22.93;;;3.30;99.90;;;;;;5053538;28;20259;-46
2022/01/16 07:42:25;;;;;;;55.57;27.10;;;3.30;99.90;;;;;;5055254;28;20187;-45
2022/01/16 07:44:51;;;;;;;64.00;32.73;;;3.30;99.90;;;;;;5053939;28;20187;-44
2022/01/16 07:47:16;;;;;;;57.13;29.23;;;3.30;99.90;;;;;;5037443;28;20200;-45
2022/01/16 07:49:42;;;;;;;62.47;30.37;;;3.30;99.90;;;;;;5053847;28;20176;-44
2022/01/16 07:52:08;;;;;;;52.03;25.93;;;3.30;99.90;;;;;;5055166;28;20183;-45
2022/01/16 07:54:33;;;;;;;58.33;31.47;;;3.30;99.90;;;;;;5055294;28;20266;-44
2022/01/16 07:56:59;;;;;;;69.13;30.23;;;3.30;99.90;;;;;;5053734;28;20199;-44
2022/01/16 07:59:24;;;;;;;56.67;27.17;;;3.30;99.90;;;;;;5053810;28;20539;-44
2022/01/16 08:01:50;;;;;;;44.30;22.07;;;3.30;99.90;;;;;;5053602;28;20203;-46
2022/01/16 08:04:16;;;;;;;65.23;33.20;;;3.30;99.90;;;;;;5053593;28;20509;-44
2022/01/16 08:06:41;;;;;;;49.63;26.87;;;3.30;99.90;;;;;;5054794;28;20211;-43
2022/01/16 08:09:07;;;;;;;59.97;31.83;;;3.30;99.90;;;;;;5053419;28;20196;-44
2022/01/16 08:11:32;;;;;;;69.63;36.00;;;3.40;99.90;;;;;;5054837;28;20183;-44
2022/01/16 08:13:58;;;;;;;63.80;32.57;;;3.30;99.90;;;;;;5053282;28;20291;-45
2022/01/16 08:16:24;;;;;;;68.80;32.53;;;3.30;99.90;;;;;;5054612;28;20196;-46
2022/01/16 08:18:50;;;;;;;63.00;31.90;;;3.30;99.90;;;;;;5053219;28;20187;-45
2022/01/16 08:21:17;;;;;;;64.50;31.90;;;3.30;99.90;;;;;;5053232;28;20517;-45
2022/01/16 08:23:43;;;;;;;68.10;32.20;;;3.30;99.90;;;;;;5054466;28;20560;-46
2022/01/16 08:26:08;;;;;;;63.97;30.93;;;3.40;99.90;;;;;;5054546;28;20294;-45
2022/01/16 08:28:34;;;;;;;61.77;31.77;;;3.30;99.90;;;;;;5054706;28;20184;-44
2022/01/16 08:30:59;;;;;;;58.13;29.33;;;3.30;99.90;;;;;;5054266;28;20190;-44
2022/01/16 08:33:25;;;;;;;57.37;30.27;;;3.40;99.90;;;;;;5054171;28;20179;-46
2022/01/16 08:35:51;;;;;;;55.20;26.53;;;3.40;99.90;;;;;;5053043;28;20557;-45
2022/01/16 08:38:16;;;;;;;37.60;20.47;;;3.40;99.90;;;;;;5052814;28;20180;-45
2022/01/16 08:40:43;;;;;;;60.10;28.17;;;3.40;99.90;;;;;;5053984;28;20257;-45
2022/01/16 08:43:09;;;;;;;58.40;29.37;;;3.40;99.90;;;;;;5052679;28;20233;-43
2022/01/16 08:56:17;;;;;;;54.77;28.40;;;3.50;99.90;;;;;;933816;23;21305;-43
2022/01/16 08:58:43;;;;;;;60.50;30.47;;;3.50;99.90;;;;;;5053906;28;20186;-43
2022/01/16 09:01:08;;;;;;;61.30;28.80;;;3.50;99.90;;;;;;5053806;28;20183;-43
2022/01/16 09:03:34;;;;;;;53.47;27.50;;;3.50;99.90;;;;;;5053836;28;20191;-41
2022/01/16 09:06:00;;;;;;;63.33;30.70;;;3.50;99.90;;;;;;5053762;28;20287;-45
2022/01/16 09:08:25;;;;;;;57.70;27.17;;;3.50;99.90;;;;;;5054029;28;20187;-42
2022/01/16 09:10:51;;;;;;;60.30;28.03;;;3.60;99.90;;;;;;5053511;28;20626;-43
2022/01/16 09:13:17;;;;;;;54.50;26.97;;;3.60;99.90;;;;;;5053598;28;20671;-41
2022/01/16 09:15:44;;;;;;;51.23;24.13;;;3.60;99.90;;;;;;5052055;28;20562;-43
2022/01/16 09:18:11;;;;;;;55.20;24.20;;;3.70;99.90;;;;;;5053543;28;20209;-45
2022/01/16 09:20:37;;;;;;;53.17;26.17;;;3.70;99.90;;;;;;5052010;28;20168;-45
2022/01/16 09:23:04;;;;;;;61.13;27.87;;;3.80;99.90;;;;;;5055869;28;20310;-43
2022/01/16 09:25:30;;;;;;;60.83;26.70;;;3.70;99.90;;;;;;5053339;28;20332;-41
2022/01/16 09:27:55;;;;;;;59.67;28.10;;;3.70;99.90;;;;;;5053485;28;20259;-45
2022/01/16 09:30:22;;;;;;;60.57;30.07;;;3.80;99.90;;;;;;5054058;28;20226;-43
2022/01/16 09:32:48;;;;;;;54.67;27.47;;;3.80;99.90;;;;;;5052184;28;20179;-42
2022/01/16 09:35:15;;;;;;;57.60;27.53;;;3.80;99.90;;;;;;5053527;28;20227;-41
2022/01/16 09:37:41;;;;;;;60.67;28.00;;;3.80;99.90;;;;;;5053696;28;20536;-44
2022/01/16 09:40:09;;;;;;;38.07;17.30;;;3.80;99.90;;;;;;5056815;28;20171;-44
2022/01/16 09:42:35;;;;;;;61.53;30.03;;;3.80;99.90;;;;;;5053916;28;20557;-46
2022/01/16 09:45:03;;;;;;;60.13;29.13;;;3.90;99.90;;;;;;5052301;28;20196;-46
2022/01/16 09:47:28;;;;;;;49.73;23.23;;;3.90;99.90;;;;;;5052142;28;20258;-46
2022/01/16 09:49:54;;;;;;;52.50;23.30;;;3.90;99.90;;;;;;5053996;28;20599;-45
2022/01/16 09:52:20;;;;;;;50.27;23.80;;;3.90;99.90;;;;;;5053612;28;20184;-46
2022/01/16 09:54:46;;;;;;;60.17;29.47;;;4.00;99.90;;;;;;5053875;28;20200;-46
2022/01/16 09:57:12;;;;;;;61.90;28.33;;;4.10;99.90;;;;;;5055365;28;20598;-46
2022/01/16 09:59:38;;;;;;;52.87;22.60;;;4.00;99.90;;;;;;5051862;28;20188;-47
2022/01/16 10:02:05;;;;;;;56.23;25.63;;;4.00;99.90;;;;;;5054827;28;20563;-46
2022/01/16 10:04:36;;;;;;;63.53;28.10;;;4.00;99.90;;;;;;5057056;28;20183;-46
2022/01/16 10:07:07;;;;;;;65.80;30.10;;;4.10;99.90;;;;;;5056955;28;20215;-46
2022/01/16 10:09:37;;;;;;;58.07;25.27;;;4.10;99.90;;;;;;5057181;28;20539;-46
2022/01/16 10:12:13;;;;;;;60.80;28.67;;;4.10;99.90;;;;;;5056276;28;20210;-46
2022/01/16 10:14:45;;;;;;;51.63;25.00;;;4.10;99.90;;;;;;5056143;28;20234;-45
2022/01/16 10:17:16;;;;;;;50.27;23.07;;;4.10;99.90;;;;;;5055645;28;20200;-45
2022/01/16 10:19:42;;;;;;;64.27;28.97;;;4.10;99.90;;;;;;5057008;28;20585;-46
2022/01/16 10:22:13;;;;;;;59.97;27.57;;;4.20;99.90;;;;;;5055437;28;20200;-46
2022/01/16 10:24:40;;;;;;;56.80;26.80;;;4.20;99.90;;;;;;5056707;28;20574;-46
2022/01/16 10:27:09;;;;;;;66.17;28.00;;;4.20;99.90;;;;;;5055197;28;20553;-45
2022/01/16 10:29:36;;;;;;;59.37;26.70;;;4.20;99.90;;;;;;5056735;28;20259;-47
2022/01/16 10:32:37;;;;;;;49.73;23.57;;;4.30;99.90;;;;;;5056438;28;20177;-46
2022/01/16 10:35:22;;;;;;;61.70;25.07;;;4.30;99.90;;;;;;5055103;28;20273;-46
2022/01/16 10:37:54;;;;;;;66.40;30.03;;;4.30;99.90;;;;;;5056999;28;20612;-46
2022/01/16 10:40:21;;;;;;;49.03;22.20;;;4.30;99.90;;;;;;5056484;28;20570;-46
2022/01/16 10:42:55;;;;;;;61.90;27.83;;;4.40;99.90;;;;;;5056318;28;20168;-46
2022/01/16 10:45:27;;;;;;;56.43;27.27;;;4.40;99.90;;;;;;5056785;28;20192;-45
2022/01/16 10:47:57;;;;;;;62.73;28.97;;;4.40;99.90;;;;;;5057095;28;20184;-45
2022/01/16 10:50:25;;;;;;;62.53;29.43;;;4.40;99.90;;;;;;5054854;28;20177;-45
2022/01/16 10:53:01;;;;;;;52.80;24.87;;;4.50;99.90;;;;;;5054789;28;20185;-45
2022/01/16 10:55:54;;;;;;;59.83;28.07;;;4.50;99.90;;;;;;5054586;28;20579;-45
2022/01/16 10:58:21;;;;;;;51.07;24.93;;;4.50;99.90;;;;;;5055921;28;20203;-45
2022/01/16 11:00:54;;;;;;;61.13;28.47;;;4.50;99.90;;;;;;5055974;28;20168;-46
2022/01/16 11:03:22;;;;;;;60.67;28.80;;;4.50;99.90;;;;;;5056042;28;20183;-45
2022/01/16 11:05:50;;;;;;;37.80;18.07;;;4.60;99.90;;;;;;5060479;28;20196;-43
2022/01/16 11:08:18;;;;;;;48.43;23.13;;;4.60;99.90;;;;;;5057371;28;20184;-45
2022/01/16 11:10:51;;;;;;;48.73;23.33;;;4.60;99.90;;;;;;5056664;28;20640;-44
2022/01/16 11:13:23;;;;;;;54.87;26.57;;;4.60;99.90;;;;;;5058028;28;20165;-44
2022/01/16 11:15:55;;;;;;;54.67;25.50;;;4.50;99.90;;;;;;5044540;28;20204;-46
2022/01/16 11:18:24;;;;;;;54.70;25.43;;;4.50;99.90;;;;;;5057810;28;20238;-43
2022/01/16 11:20:56;;;;;;;49.97;24.13;;;4.60;99.90;;;;;;5062545;28;20211;-43
2022/01/16 11:26:00;;;;;;;54.40;25.17;;;4.60;99.90;;;;;;5056549;28;20200;-44
2022/01/16 11:28:26;;;;;;;60.10;28.10;;;4.60;99.90;;;;;;5057239;28;20219;-45
2022/01/16 11:31:02;;;;;;;52.33;25.47;;;4.60;99.90;;;;;;5061810;28;20678;-43
2022/01/16 11:33:35;;;;;;;55.73;24.93;;;4.70;99.90;;;;;;5058468;28;20185;-45
2022/01/16 11:36:17;;;;;;;56.97;26.20;;;4.70;99.90;;;;;;5057243;28;20230;-44
2022/01/16 11:38:49;;;;;;;51.83;24.33;;;4.70;99.90;;;;;;5057379;28;20199;-44
2022/01/16 11:41:18;;;;;;;52.40;24.90;;;4.80;99.90;;;;;;5059971;28;20475;-44
2022/01/16 11:43:48;;;;;;;53.37;25.33;;;4.80;99.90;;;;;;5055417;28;20546;-45
2022/01/16 11:46:24;;;;;;;42.37;19.00;;;4.80;99.90;;;;;;5054408;28;20212;-44
2022/01/16 11:48:59;;;;;;;54.27;23.70;;;4.80;99.90;;;;;;5054646;28;20179;-43
2022/01/16 11:51:39;;;;;;;37.83;18.40;;;4.80;99.90;;;;;;5055137;28;20270;-45
2022/01/16 11:54:16;;;;;;;48.77;22.37;;;4.90;99.90;;;;;;5056321;28;20611;-44
2022/01/16 11:56:41;;;;;;;50.10;23.17;;;4.90;99.90;;;;;;5058130;28;20289;-43
2022/01/16 11:59:19;;;;;;;55.17;26.10;;;4.90;99.90;;;;;;5057451;28;20224;-45
2022/01/16 12:01:45;;;;;;;51.23;26.20;;;4.90;99.90;;;;;;5058365;28;20172;-45
2022/01/16 12:04:29;;;;;;;49.57;24.17;;;4.90;99.90;;;;;;5061212;28;20540;-46
2022/01/16 12:07:13;;;;;;;45.43;23.27;;;4.90;99.90;;;;;;5053949;28;20564;-44
2022/01/16 12:12:13;;;;;;;39.73;17.37;;;5.00;99.90;;;;;;5055456;28;20253;-45
2022/01/16 12:14:52;;;;;;;49.73;24.77;;;4.90;99.90;;;;;;5053714;28;20738;-45
2022/01/16 12:17:45;;;;;;;41.83;18.87;;;5.00;99.90;;;;;;5055761;28;20200;-44
2022/01/16 12:20:27;;;;;;;46.43;21.73;;;5.00;99.90;;;;;;5054966;28;20156;-46
2022/01/16 12:23:03;;;;;;;42.80;20.40;;;5.00;99.90;;;;;;5055321;28;20156;-45
2022/01/16 12:25:31;;;;;;;40.83;19.50;;;5.00;99.90;;;;;;5054404;28;20204;-46
2022/01/16 12:28:03;;;;;;;48.00;23.07;;;5.00;99.90;;;;;;5054787;28;20190;-44
2022/01/16 12:30:49;;;;;;;46.83;22.30;;;5.00;99.90;;;;;;5053042;28;20187;-46
2022/01/16 12:33:14;;;;;;;43.70;21.57;;;5.00;99.90;;;;;;5054547;28;20253;-44
2022/01/16 12:35:49;;;;;;;36.60;18.70;;;5.00;99.90;;;;;;5053145;28;20661;-45
2022/01/16 12:38:23;;;;;;;36.90;17.07;;;5.00;99.90;;;;;;5055004;28;20198;-46
2022/01/16 12:41:07;;;;;;;36.87;18.67;;;5.00;99.90;;;;;;5055679;28;20179;-44
2022/01/16 12:43:40;;;;;;;36.63;19.13;;;5.00;99.90;;;;;;5054143;28;20192;-45
2022/01/16 12:46:08;;;;;;;42.47;21.63;;;5.10;99.90;;;;;;5053763;28;20204;-46
2022/01/16 12:48:40;;;;;;;40.17;21.23;;;5.10;99.90;;;;;;5055656;28;20180;-45
2022/01/16 12:51:07;;;;;;;36.93;18.20;;;5.10;99.90;;;;;;5057189;28;20177;-45
2022/01/16 12:53:43;;;;;;;35.73;17.57;;;5.10;99.90;;;;;;5054388;28;20317;-45
2022/01/16 12:56:26;;;;;;;43.57;21.10;;;5.10;99.90;;;;;;5058079;28;20207;-43
2022/01/16 12:58:55;;;;;;;30.67;16.33;;;5.10;99.90;;;;;;5054808;28;20177;-46
2022/01/16 13:01:22;;;;;;;36.50;18.97;;;5.10;99.90;;;;;;5056613;28;20184;-46
2022/01/16 13:03:48;;;;;;;28.83;15.57;;;5.10;99.90;;;;;;5053506;28;20188;-45
2022/01/16 13:06:17;;;;;;;34.97;17.93;;;5.10;99.90;;;;;;5055355;28;20204;-45
2022/01/16 13:09:15;;;;;;;28.73;15.03;;;5.10;99.90;;;;;;5055455;28;20184;-45
2022/01/16 13:11:47;;;;;;;41.40;20.47;;;5.10;99.90;;;;;;5055195;28;20196;-45
2022/01/16 13:14:19;;;;;;;36.63;18.20;;;5.00;99.90;;;;;;5055901;28;20192;-44
2022/01/16 13:16:49;;;;;;;32.70;18.07;;;5.00;99.90;;;;;;5055642;28;20196;-45
2022/01/16 13:19:19;;;;;;;33.87;16.90;;;5.00;99.90;;;;;;5055367;28;20180;-47
2022/01/16 13:22:03;;;;;;;36.43;19.70;;;5.00;99.90;;;;;;5055415;28;20183;-45
2022/01/16 13:24:33;;;;;;;25.07;12.67;;;5.00;99.90;;;;;;5054043;28;20174;-45
2022/01/16 13:27:01;;;;;;;35.43;18.00;;;5.00;99.90;;;;;;5054026;28;20210;-45
2022/01/16 13:29:27;;;;;;;32.30;17.80;;;5.10;99.90;;;;;;5055392;28;20541;-45
2022/01/16 13:31:53;;;;;;;29.83;15.47;;;5.10;99.90;;;;;;5054933;28;20616;-46
2022/01/16 13:34:40;;;;;;;28.47;16.50;;;5.00;99.90;;;;;;5055087;28;20248;-46
2022/01/16 13:37:11;;;;;;;33.67;16.37;;;5.00;99.90;;;;;;5055079;28;20238;-45
2022/01/16 13:39:38;;;;;;;33.90;17.63;;;5.00;99.90;;;;;;5056309;28;20172;-45